Borrego Springs, CA (92004)

6:28 AM PDT on May 23, 2015 (GMT -0700)
MesoWest | | Change Station
CLOSE
Current Station
Personal Weather Station
Location: Borrego Springs, CA
Elevation: 720 ft
Nearby Weather Stations
Active Advisory: Wind Advisory Active Notice: Record Report

Elev 720 ft 33.26 °N, 116.35 °W | Updated 38 minutes ago

Partly Cloudy
Partly Cloudy
60 °F
Feels Like 60 °F
N
2
Wind Variable Wind from SSE
Gusts 4.0 mph

Today
High -- | Low -- °F
--% Chance of Precip.
Yesterday
High -- | Low -- °F
Precip. -- in
5:40 AM 7:43 PM
Waxing Crescent, 30% visible
Pressure 29.94 in
Visibility 10.0 miles
Clouds Clear
Dew Point 43 °F
Humidity 53%
Rainfall in
Snow Depth Not available.
UV 0 out of 12
Pollen 6.00 out of 12
Air Quality Not available.
Flu Activity Sporadic
METAR KTRM 231252Z AUTO 30008KT 10SM CLR 18/08 A2993 RMK AO2 SLP136 T01780083 TSNO

More Conditions Fewer Conditions

Pressure 29.94 in
Visibility 10.0 miles
Clouds Clear
Dew Point 43 °F
Humidity 53%
Rainfall in
Snow Depth Not available.
UV 0 out of 12
Pollen 6.00 out of 12
Air Quality Not available.
Flu Activity Sporadic
METAR KTRM 231252Z AUTO 30008KT 10SM CLR 18/08 A2993 RMK AO2 SLP136 T01780083 TSNO

More Conditions Fewer Conditions

10-Day Weather Forecast

Almanac

Astronomy

May. 23, 2015 Rise Set
Actual Time
Civil Twilight
Nautical Twilight
Astronomical Twilight
Moon
Length of Visible Light
Length of Day
Tomorrow will be .
, % of the Moon is Illuminated

Today's Extremes

State Highs State Lows

Community

WunderPhotos

Upload Photos

1,823,458 photos uploaded!

WunderBlogs® & News

Nearby

Air Quality

  Air Quality AQ Index Pollutant
Not available.

Snow Depth

Station Depth Elevation

Earthquake Activity

City Distance Mag. Time & Date
Minimum magnitude displayed is 2.5.

Coastal Water Temperatures

Place Temperature

Stations

Nearby Weather Stations

Station Location Temp. Windchill Dew Point Humidity Wind Precip. Elev Updated Type
                   
Wind Advisory
Statement as of 3:51 AM PDT on May 23, 2015

... Wind Advisory remains in effect until 2 am PDT Sunday...

* winds... areas of west winds 20 to 30 mph with gusts to 45 mph.
Local gusts to 55 mph... mainly in the northern Coachella Valley
below the Banning pass.

* Timing... the strongest and most widespread winds are expected
from late this afternoon through late this evening.

* Visibility... locally reduced in blowing dust and sand.

* Impacts... difficult driving conditions particularly along
Interstate 10 north of Palm Springs.

Precautionary/preparedness actions...

A Wind Advisory means that winds of 35 mph are expected. Winds
this strong can make driving difficult... especially for high
profile vehicles. Use extra caution.



17